ENVR/VRY METAR and TAF weather

Enter ICAO airport designator
Station Type Date Time Source
ENVR METAR 2021/09/23 13:50 UTC NOAA

ENVR 231350Z 19015KT 9999 SCT014 BKN040 10/07 Q0992


Station Type Date Time Source
ENVR Decoded METAR 2021/09/23 13:50 UTC NOAA

Station name not available
Sep 23, 2021 - 09:50 AM EDT / 2021.09.23 1350 UTC
Wind: from the S (190 degrees) at 17 MPH (15 KT):0
Visibility: greater than 7 mile(s):0
Sky conditions: mostly cloudy
Temperature: 50 F (10 C)
Dew Point: 44 F (7 C)
Relative Humidity: 81%
Pressure (altimeter): 29.29 in. Hg (0992 hPa)
ob: ENVR 231350Z 19015KT 9999 SCT014 BKN040 10/07 Q0992
cycle: 14

Station Type Date Time Source
ENVR TAF UTC NOAA

Error!

Example: see airport list